Archival Weather

Dewar Lakes

Dewar Lakes, Canada (CWUW)

Report from: Friday, May 26, 2023 6:00 PM EDT
Current time: Monday, July 22, 2024 7:24 AM EDT

Current weather – Weather history – Daily summaries
Weather forecast

Present weatherSM
Temperature-12.0°C (10.4°F)
Wind chill-23.9°C (-11.0°F)
Dew point-13.0°C (8.6°F)
Winds 24 kts (12.3 m/s, 27.6 mph) West (280°)
Visibility0 ft. (0 m)
Altimeter29.77 in.Hg (1008 mB)
Relative humidity92 %
Density altitude-3,176 ft. (-968 m)
Remarks Fully automated report
Flight conditions Low Instrument Meteorological Conditions
Raw dataCWUW 262200Z AUTO 28024KT ////SM ////// M12/M13 A2977
An error has occurred. This application may no longer respond until reloaded. Reload 🗙